sensor_id;sensor_type;location;lat;lon;timestamp;pressure;altitude;pressure_sealevel;temperature;humidity
55914;BME280;58179;48.776;9.124;2023-04-28T00:01:42;97154.47;;;11.17;100.00
55914;BME280;58179;48.776;9.124;2023-04-28T00:04:09;97170.38;;;11.22;100.00
55914;BME280;58179;48.776;9.124;2023-04-28T00:06:35;97166.97;;;11.27;100.00
55914;BME280;58179;48.776;9.124;2023-04-28T00:09:01;97150.78;;;11.28;100.00
55914;BME280;58179;48.776;9.124;2023-04-28T00:11:28;97150.00;;;11.28;100.00
55914;BME280;58179;48.776;9.124;2023-04-28T00:13:55;97152.91;;;11.36;100.00
55914;BME280;58179;48.776;9.124;2023-04-28T00:16:21;97150.28;;;11.36;100.00
55914;BME280;58179;48.776;9.124;2023-04-28T00:18:47;97149.75;;;11.34;100.00
55914;BME280;58179;48.776;9.124;2023-04-28T00:21:13;97143.91;;;11.32;100.00
55914;BME280;58179;48.776;9.124;2023-04-28T00:23:38;97141.00;;;11.39;100.00
55914;BME280;58179;48.776;9.124;2023-04-28T00:26:04;97144.19;;;11.41;100.00
55914;BME280;58179;48.776;9.124;2023-04-28T00:28:30;97142.06;;;11.43;100.00
55914;BME280;58179;48.776;9.124;2023-04-28T00:30:57;97140.75;;;11.45;100.00
55914;BME280;58179;48.776;9.124;2023-04-28T00:33:23;97130.69;;;11.47;100.00
55914;BME280;58179;48.776;9.124;2023-04-28T00:35:53;97130.69;;;11.47;100.00
55914;BME280;58179;48.776;9.124;2023-04-28T00:38:23;97138.09;;;11.45;100.00
55914;BME280;58179;48.776;9.124;2023-04-28T00:40:50;97129.59;;;11.43;100.00
55914;BME280;58179;48.776;9.124;2023-04-28T00:43:16;97128.81;;;11.43;100.00
55914;BME280;58179;48.776;9.124;2023-04-28T00:45:41;97120.88;;;11.43;100.00
55914;BME280;58179;48.776;9.124;2023-04-28T00:48:09;97111.84;;;11.44;100.00
55914;BME280;58179;48.776;9.124;2023-04-28T00:50:35;97117.69;;;11.41;100.00
55914;BME280;58179;48.776;9.124;2023-04-28T00:53:02;97125.91;;;11.39;100.00
55914;BME280;58179;48.776;9.124;2023-04-28T00:55:31;97129.59;;;11.38;100.00
55914;BME280;58179;48.776;9.124;2023-04-28T00:57:58;97124.56;;;11.37;100.00
55914;BME280;58179;48.776;9.124;2023-04-28T01:00:24;97116.38;;;11.33;100.00
55914;BME280;58179;48.776;9.124;2023-04-28T01:02:51;97113.41;;;11.30;100.00
55914;BME280;58179;48.776;9.124;2023-04-28T01:05:19;97112.91;;;11.28;100.00
55914;BME280;58179;48.776;9.124;2023-04-28T01:07:45;97099.91;;;11.26;100.00
55914;BME280;58179;48.776;9.124;2023-04-28T01:10:11;97106.53;;;11.23;100.00
55914;BME280;58179;48.776;9.124;2023-04-28T01:12:37;97112.34;;;11.20;100.00
55914;BME280;58179;48.776;9.124;2023-04-28T01:15:04;97109.16;;;11.18;100.00
55914;BME280;58179;48.776;9.124;2023-04-28T01:17:31;97092.75;;;11.16;100.00
55914;BME280;58179;48.776;9.124;2023-04-28T01:19:57;97098.03;;;11.16;100.00
55914;BME280;58179;48.776;9.124;2023-04-28T01:22:24;97093.78;;;11.15;100.00
55914;BME280;58179;48.776;9.124;2023-04-28T01:24:51;97082.69;;;11.18;100.00
55914;BME280;58179;48.776;9.124;2023-04-28T01:27:17;97080.53;;;11.20;100.00
55914;BME280;58179;48.776;9.124;2023-04-28T01:29:43;97080.84;;;11.24;100.00
55914;BME280;58179;48.776;9.124;2023-04-28T01:32:09;97082.44;;;11.25;100.00
55914;BME280;58179;48.776;9.124;2023-04-28T01:34:35;97073.13;;;11.22;100.00
55914;BME280;58179;48.776;9.124;2023-04-28T01:37:01;97070.22;;;11.24;100.00
55914;BME280;58179;48.776;9.124;2023-04-28T01:39:26;97078.72;;;11.26;100.00
55914;BME280;58179;48.776;9.124;2023-04-28T01:41:54;97069.19;;;11.25;100.00
55914;BME280;58179;48.776;9.124;2023-04-28T01:44:20;97071.03;;;11.24;100.00
55914;BME280;58179;48.776;9.124;2023-04-28T01:46:45;97073.94;;;11.23;100.00
55914;BME280;58179;48.776;9.124;2023-04-28T01:49:11;97071.28;;;11.23;100.00
55914;BME280;58179;48.776;9.124;2023-04-28T01:51:37;97066.78;;;11.23;100.00
55914;BME280;58179;48.776;9.124;2023-04-28T01:54:03;97061.22;;;11.25;100.00
55914;BME280;58179;48.776;9.124;2023-04-28T01:56:29;97061.47;;;11.29;100.00
55914;BME280;58179;48.776;9.124;2023-04-28T01:58:56;97064.13;;;11.29;100.00
55914;BME280;58179;48.776;9.124;2023-04-28T02:01:22;97062.81;;;11.26;100.00
55914;BME280;58179;48.776;9.124;2023-04-28T02:03:48;97059.63;;;11.24;100.00
55914;BME280;58179;48.776;9.124;2023-04-28T02:06:15;97062.00;;;11.20;100.00
55914;BME280;58179;48.776;9.124;2023-04-28T02:08:40;97047.97;;;11.20;100.00
55914;BME280;58179;48.776;9.124;2023-04-28T02:11:06;97048.75;;;11.20;100.00
55914;BME280;58179;48.776;9.124;2023-04-28T02:13:32;97035.53;;;11.25;100.00
55914;BME280;58179;48.776;9.124;2023-04-28T02:16:01;97036.06;;;11.28;100.00
55914;BME280;58179;48.776;9.124;2023-04-28T02:18:29;97037.63;;;11.29;100.00
55914;BME280;58179;48.776;9.124;2023-04-28T02:20:55;97048.22;;;11.29;100.00
55914;BME280;58179;48.776;9.124;2023-04-28T02:23:21;97049.31;;;11.28;100.00
55914;BME280;58179;48.776;9.124;2023-04-28T02:25:47;97045.88;;;11.27;100.00
55914;BME280;58179;48.776;9.124;2023-04-28T02:28:13;97041.88;;;11.24;100.00
55914;BME280;58179;48.776;9.124;2023-04-28T02:30:39;97042.16;;;11.23;100.00
55914;BME280;58179;48.776;9.124;2023-04-28T02:33:06;97044.00;;;11.22;100.00
55914;BME280;58179;48.776;9.124;2023-04-28T02:35:32;97032.84;;;11.20;100.00
55914;BME280;58179;48.776;9.124;2023-04-28T02:37:58;97030.75;;;11.22;100.00
55914;BME280;58179;48.776;9.124;2023-04-28T02:40:24;97024.41;;;11.23;100.00
55914;BME280;58179;48.776;9.124;2023-04-28T02:42:50;97033.94;;;11.24;100.00
55914;BME280;58179;48.776;9.124;2023-04-28T02:45:16;97037.94;;;11.27;100.00
55914;BME280;58179;48.776;9.124;2023-04-28T02:47:42;97037.13;;;11.27;100.00
55914;BME280;58179;48.776;9.124;2023-04-28T02:50:09;97033.13;;;11.24;100.00
55914;BME280;58179;48.776;9.124;2023-04-28T02:52:36;97038.69;;;11.22;100.00
55914;BME280;58179;48.776;9.124;2023-04-28T02:55:02;97040.03;;;11.20;100.00
55914;BME280;58179;48.776;9.124;2023-04-28T02:57:29;97045.06;;;11.16;100.00
55914;BME280;58179;48.776;9.124;2023-04-28T02:59:55;97045.56;;;11.13;100.00
55914;BME280;58179;48.776;9.124;2023-04-28T03:02:21;97045.56;;;11.08;100.00
55914;BME280;58179;48.776;9.124;2023-04-28T03:04:47;97043.16;;;11.02;100.00
55914;BME280;58179;48.776;9.124;2023-04-28T03:07:14;97043.97;;;10.97;100.00
55914;BME280;58179;48.776;9.124;2023-04-28T03:09:40;97040.25;;;10.98;100.00
55914;BME280;58179;48.776;9.124;2023-04-28T03:12:06;97034.94;;;10.98;100.00
55914;BME280;58179;48.776;9.124;2023-04-28T03:14:32;97030.72;;;10.97;100.00
55914;BME280;58179;48.776;9.124;2023-04-28T03:16:58;97036.53;;;10.94;100.00
55914;BME280;58179;48.776;9.124;2023-04-28T03:19:24;97033.34;;;10.92;100.00
55914;BME280;58179;48.776;9.124;2023-04-28T03:21:51;97022.75;;;10.92;100.00
55914;BME280;58179;48.776;9.124;2023-04-28T03:24:18;97021.94;;;10.92;100.00
55914;BME280;58179;48.776;9.124;2023-04-28T03:26:44;97023.81;;;10.91;100.00
55914;BME280;58179;48.776;9.124;2023-04-28T03:29:10;97021.94;;;10.92;100.00
55914;BME280;58179;48.776;9.124;2023-04-28T03:31:36;97024.59;;;10.92;100.00
55914;BME280;58179;48.776;9.124;2023-04-28T03:34:02;97011.91;;;10.94;100.00
55914;BME280;58179;48.776;9.124;2023-04-28T03:36:29;97012.69;;;10.94;100.00
55914;BME280;58179;48.776;9.124;2023-04-28T03:38:54;97018.78;;;10.95;100.00
55914;BME280;58179;48.776;9.124;2023-04-28T03:41:22;97024.88;;;10.95;100.00
55914;BME280;58179;48.776;9.124;2023-04-28T03:43:48;97020.09;;;10.92;100.00
55914;BME280;58179;48.776;9.124;2023-04-28T03:46:13;97021.16;;;10.91;100.00
55914;BME280;58179;48.776;9.124;2023-04-28T03:48:39;97013.50;;;10.90;100.00
55914;BME280;58179;48.776;9.124;2023-04-28T03:51:05;97012.41;;;10.91;100.00
55914;BME280;58179;48.776;9.124;2023-04-28T03:53:31;97011.63;;;10.90;100.00
55914;BME280;58179;48.776;9.124;2023-04-28T03:55:57;97003.66;;;10.90;100.00
55914;BME280;58179;48.776;9.124;2023-04-28T03:58:24;97002.63;;;10.91;100.00
55914;BME280;58179;48.776;9.124;2023-04-28T04:00:51;97006.06;;;10.92;100.00
55914;BME280;58179;48.776;9.124;2023-04-28T04:03:17;97003.16;;;10.93;100.00
55914;BME280;58179;48.776;9.124;2023-04-28T04:05:43;97009.50;;;10.92;100.00
55914;BME280;58179;48.776;9.124;2023-04-28T04:08:09;97000.50;;;10.93;100.00
55914;BME280;58179;48.776;9.124;2023-04-28T04:10:35;97000.00;;;10.96;100.00
55914;BME280;58179;48.776;9.124;2023-04-28T04:13:01;96994.69;;;10.96;100.00
55914;BME280;58179;48.776;9.124;2023-04-28T04:15:29;96993.38;;;10.99;100.00
55914;BME280;58179;48.776;9.124;2023-04-28T04:17:55;96996.81;;;10.99;100.00
55914;BME280;58179;48.776;9.124;2023-04-28T04:20:21;96999.75;;;11.03;100.00
55914;BME280;58179;48.776;9.124;2023-04-28T04:22:47;96990.75;;;11.04;100.00
55914;BME280;58179;48.776;9.124;2023-04-28T04:25:13;96992.06;;;11.06;100.00
55914;BME280;58179;48.776;9.124;2023-04-28T04:27:39;96989.41;;;11.06;100.00
55914;BME280;58179;48.776;9.124;2023-04-28T04:30:07;96986.78;;;11.11;100.00
55914;BME280;58179;48.776;9.124;2023-04-28T04:32:34;96994.19;;;11.14;100.00
55914;BME280;58179;48.776;9.124;2023-04-28T04:35:00;96997.09;;;11.18;100.00
55914;BME280;58179;48.776;9.124;2023-04-28T04:37:26;96989.69;;;11.20;100.00
55914;BME280;58179;48.776;9.124;2023-04-28T04:39:52;96988.91;;;11.24;100.00
55914;BME280;58179;48.776;9.124;2023-04-28T04:42:18;96995.00;;;11.25;100.00
55914;BME280;58179;48.776;9.124;2023-04-28T04:44:44;96992.59;;;11.29;100.00
55914;BME280;58179;48.776;9.124;2023-04-28T04:47:10;96997.88;;;11.29;100.00
55914;BME280;58179;48.776;9.124;2023-04-28T04:49:37;96993.94;;;11.31;100.00
55914;BME280;58179;48.776;9.124;2023-04-28T04:52:03;96984.13;;;11.37;100.00
55914;BME280;58179;48.776;9.124;2023-04-28T04:54:31;96978.03;;;11.36;100.00
55914;BME280;58179;48.776;9.124;2023-04-28T04:56:57;96979.63;;;11.37;100.00
55914;BME280;58179;48.776;9.124;2023-04-28T04:59:23;96985.69;;;11.43;100.00
55914;BME280;58179;48.776;9.124;2023-04-28T05:01:49;96980.41;;;11.38;100.00
55914;BME280;58179;48.776;9.124;2023-04-28T05:04:15;96989.16;;;11.28;100.00
55914;BME280;58179;48.776;9.124;2023-04-28T05:06:42;96986.50;;;11.18;100.00
55914;BME280;58179;48.776;9.124;2023-04-28T05:09:08;96987.56;;;11.12;100.00
55914;BME280;58179;48.776;9.124;2023-04-28T05:11:34;96994.19;;;11.04;100.00
55914;BME280;58179;48.776;9.124;2023-04-28T05:14:00;96997.59;;;10.95;100.00
55914;BME280;58179;48.776;9.124;2023-04-28T05:16:26;96993.38;;;10.89;100.00
55914;BME280;58179;48.776;9.124;2023-04-28T05:18:56;96993.88;;;10.85;100.00
55914;BME280;58179;48.776;9.124;2023-04-28T05:21:23;96997.31;;;10.86;100.00
55914;BME280;58179;48.776;9.124;2023-04-28T05:23:51;97004.47;;;10.85;100.00
55914;BME280;58179;48.776;9.124;2023-04-28T05:26:18;96999.97;;;10.86;100.00
55914;BME280;58179;48.776;9.124;2023-04-28T05:28:44;96997.06;;;10.88;100.00
55914;BME280;58179;48.776;9.124;2023-04-28T05:31:10;96993.88;;;10.85;100.00
55914;BME280;58179;48.776;9.124;2023-04-28T05:33:36;96987.25;;;10.83;100.00
55914;BME280;58179;48.776;9.124;2023-04-28T05:36:01;96993.88;;;10.85;100.00
55914;BME280;58179;48.776;9.124;2023-04-28T05:38:28;96998.66;;;10.89;100.00
55914;BME280;58179;48.776;9.124;2023-04-28T05:40:55;96992.81;;;10.92;100.00
55914;BME280;58179;48.776;9.124;2023-04-28T05:43:21;96998.41;;;10.95;100.00
55914;BME280;58179;48.776;9.124;2023-04-28T05:45:47;96992.84;;;10.97;100.00
55914;BME280;58179;48.776;9.124;2023-04-28T05:48:13;96995.22;;;10.98;100.00
55914;BME280;58179;48.776;9.124;2023-04-28T05:50:38;96995.22;;;10.98;100.00
55914;BME280;58179;48.776;9.124;2023-04-28T05:53:04;96998.16;;;11.02;100.00
55914;BME280;58179;48.776;9.124;2023-04-28T05:55:32;96985.44;;;11.09;100.00
55914;BME280;58179;48.776;9.124;2023-04-28T05:58:00;96985.97;;;11.11;100.00
55914;BME280;58179;48.776;9.124;2023-04-28T06:00:25;96982.28;;;11.12;100.00
55914;BME280;58179;48.776;9.124;2023-04-28T06:02:51;96989.16;;;11.08;100.00
55914;BME280;58179;48.776;9.124;2023-04-28T06:05:17;96983.31;;;11.01;100.00
55914;BME280;58179;48.776;9.124;2023-04-28T06:07:43;96982.50;;;11.05;100.00
55914;BME280;58179;48.776;9.124;2023-04-28T06:10:10;96984.66;;;11.03;100.00
55914;BME280;58179;48.776;9.124;2023-04-28T06:12:36;96985.41;;;10.99;100.00
55914;BME280;58179;48.776;9.124;2023-04-28T06:15:05;96981.19;;;10.98;100.00
55914;BME280;58179;48.776;9.124;2023-04-28T06:17:31;96980.13;;;10.99;100.00
55914;BME280;58179;48.776;9.124;2023-04-28T06:19:58;96979.06;;;10.95;100.00
55914;BME280;58179;48.776;9.124;2023-04-28T06:22:24;96982.78;;;10.94;100.00
55914;BME280;58179;48.776;9.124;2023-04-28T06:24:50;96984.13;;;10.96;100.00
55914;BME280;58179;48.776;9.124;2023-04-28T06:27:16;96972.97;;;10.94;100.00
55914;BME280;58179;48.776;9.124;2023-04-28T06:29:42;96979.63;;;10.97;100.00
55914;BME280;58179;48.776;9.124;2023-04-28T06:32:09;96972.19;;;10.99;100.00
55914;BME280;58179;48.776;9.124;2023-04-28T06:34:35;96969.56;;;11.04;100.00
55914;BME280;58179;48.776;9.124;2023-04-28T06:37:01;96969.28;;;11.10;100.00
55914;BME280;58179;48.776;9.124;2023-04-28T06:39:27;96968.47;;;11.15;100.00
55914;BME280;58179;48.776;9.124;2023-04-28T06:41:53;96966.09;;;11.23;100.00
55914;BME280;58179;48.776;9.124;2023-04-28T06:44:19;96970.88;;;11.32;100.00
55914;BME280;58179;48.776;9.124;2023-04-28T06:46:45;96963.72;;;11.32;100.00
55914;BME280;58179;48.776;9.124;2023-04-28T06:49:15;96969.56;;;11.34;100.00
55914;BME280;58179;48.776;9.124;2023-04-28T06:51:40;96958.66;;;11.36;100.00
55914;BME280;58179;48.776;9.124;2023-04-28T06:54:06;96964.50;;;11.43;100.00
55914;BME280;58179;48.776;9.124;2023-04-28T06:56:32;96956.56;;;11.48;100.00
55914;BME280;58179;48.776;9.124;2023-04-28T06:59:00;96958.66;;;11.51;100.00
55914;BME280;58179;48.776;9.124;2023-04-28T07:01:26;96956.28;;;11.59;100.00
55914;BME280;58179;48.776;9.124;2023-04-28T07:03:52;96954.16;;;11.61;100.00
55914;BME280;58179;48.776;9.124;2023-04-28T07:06:19;96957.59;;;11.62;100.00
55914;BME280;58179;48.776;9.124;2023-04-28T07:08:45;96955.75;;;11.57;100.00
55914;BME280;58179;48.776;9.124;2023-04-28T07:11:11;96950.44;;;11.62;100.00
55914;BME280;58179;48.776;9.124;2023-04-28T07:13:37;96945.94;;;11.63;100.00
55914;BME280;58179;48.776;9.124;2023-04-28T07:16:03;96948.31;;;11.64;100.00
55914;BME280;58179;48.776;9.124;2023-04-28T07:18:29;96940.88;;;11.72;100.00
55914;BME280;58179;48.776;9.124;2023-04-28T07:20:55;96944.34;;;11.72;100.00
55914;BME280;58179;48.776;9.124;2023-04-28T07:23:23;96940.09;;;11.76;100.00
55914;BME280;58179;48.776;9.124;2023-04-28T07:25:49;96948.59;;;11.78;100.00
55914;BME280;58179;48.776;9.124;2023-04-28T07:28:14;96950.41;;;11.83;100.00
55914;BME280;58179;48.776;9.124;2023-04-28T07:30:40;96941.91;;;11.91;100.00
55914;BME280;58179;48.776;9.124;2023-04-28T07:33:06;96942.97;;;11.90;100.00
55914;BME280;58179;48.776;9.124;2023-04-28T07:35:32;96943.75;;;12.00;100.00
55914;BME280;58179;48.776;9.124;2023-04-28T07:37:58;96939.25;;;12.01;100.00
55914;BME280;58179;48.776;9.124;2023-04-28T07:40:26;96940.31;;;11.95;100.00
55914;BME280;58179;48.776;9.124;2023-04-28T07:42:51;96943.19;;;12.03;100.00
55914;BME280;58179;48.776;9.124;2023-04-28T07:45:17;96942.69;;;12.01;100.00
55914;BME280;58179;48.776;9.124;2023-04-28T07:47:43;96946.09;;;12.12;100.00
55914;BME280;58179;48.776;9.124;2023-04-28T07:50:10;96945.59;;;12.05;100.00
55914;BME280;58179;48.776;9.124;2023-04-28T07:52:36;96941.63;;;11.97;100.00
55914;BME280;58179;48.776;9.124;2023-04-28T07:55:02;96940.84;;;11.92;100.00
55914;BME280;58179;48.776;9.124;2023-04-28T07:57:30;96941.91;;;11.91;100.00
55914;BME280;58179;48.776;9.124;2023-04-28T07:59:56;96949.63;;;11.87;100.00
55914;BME280;58179;48.776;9.124;2023-04-28T08:02:22;96948.31;;;11.80;100.00
55914;BME280;58179;48.776;9.124;2023-04-28T08:04:47;96957.88;;;11.76;100.00
55914;BME280;58179;48.776;9.124;2023-04-28T08:07:13;96957.06;;;11.65;100.00
55914;BME280;58179;48.776;9.124;2023-04-28T08:09:39;96960.78;;;11.64;100.00
55914;BME280;58179;48.776;9.124;2023-04-28T08:12:08;96963.72;;;11.57;100.00
55914;BME280;58179;48.776;9.124;2023-04-28T08:14:36;96969.25;;;11.61;100.00
55914;BME280;58179;48.776;9.124;2023-04-28T08:17:01;96975.38;;;11.56;100.00
55914;BME280;58179;48.776;9.124;2023-04-28T08:19:27;96972.72;;;11.61;100.00
55914;BME280;58179;48.776;9.124;2023-04-28T08:21:53;96984.66;;;11.64;100.00
55914;BME280;58179;48.776;9.124;2023-04-28T08:24:19;96984.66;;;11.64;100.00
55914;BME280;58179;48.776;9.124;2023-04-28T08:26:45;96988.09;;;11.64;100.00
55914;BME280;58179;48.776;9.124;2023-04-28T08:29:11;96990.47;;;11.71;100.00
55914;BME280;58179;48.776;9.124;2023-04-28T08:31:39;96990.75;;;11.75;100.00
55914;BME280;58179;48.776;9.124;2023-04-28T08:34:04;96997.91;;;11.74;100.00
55914;BME280;58179;48.776;9.124;2023-04-28T08:36:30;96998.19;;;11.78;100.00
55914;BME280;58179;48.776;9.124;2023-04-28T08:38:58;97002.69;;;11.87;100.00
55914;BME280;58179;48.776;9.124;2023-04-28T08:41:25;97001.56;;;11.98;100.00
55914;BME280;58179;48.776;9.124;2023-04-28T08:43:54;96999.41;;;12.11;100.00
55914;BME280;58179;48.776;9.124;2023-04-28T08:46:21;97004.47;;;12.17;100.00
55914;BME280;58179;48.776;9.124;2023-04-28T08:48:50;97011.34;;;12.23;100.00
55914;BME280;58179;48.776;9.124;2023-04-28T08:51:28;97013.97;;;12.28;100.00
55914;BME280;58179;48.776;9.124;2023-04-28T08:53:58;97017.16;;;12.30;100.00
55914;BME280;58179;48.776;9.124;2023-04-28T08:56:31;97020.84;;;12.34;100.00
55914;BME280;58179;48.776;9.124;2023-04-28T08:59:01;97028.00;;;12.39;100.00
55914;BME280;58179;48.776;9.124;2023-04-28T09:01:29;97030.38;;;12.46;100.00
55914;BME280;58179;48.776;9.124;2023-04-28T09:03:56;97026.66;;;12.47;100.00
55914;BME280;58179;48.776;9.124;2023-04-28T09:06:25;97030.91;;;12.48;100.00
55914;BME280;58179;48.776;9.124;2023-04-28T09:08:51;97032.75;;;12.47;100.00
55914;BME280;58179;48.776;9.124;2023-04-28T09:11:17;97034.31;;;12.48;100.00
55914;BME280;58179;48.776;9.124;2023-04-28T09:13:43;97027.16;;;12.54;100.00
55914;BME280;58179;48.776;9.124;2023-04-28T09:16:11;97032.69;;;12.57;100.00
55914;BME280;58179;48.776;9.124;2023-04-28T09:18:37;97023.94;;;12.57;100.00
55914;BME280;58179;48.776;9.124;2023-04-28T09:21:07;97039.88;;;12.57;100.00
55914;BME280;58179;48.776;9.124;2023-04-28T09:23:35;97037.25;;;12.52;100.00
55914;BME280;58179;48.776;9.124;2023-04-28T09:26:11;97032.97;;;12.56;100.00
55914;BME280;58179;48.776;9.124;2023-04-28T09:28:37;97032.97;;;12.61;100.00
55914;BME280;58179;48.776;9.124;2023-04-28T09:31:03;97043.25;;;12.72;100.00
55914;BME280;58179;48.776;9.124;2023-04-28T09:33:29;97036.34;;;12.76;100.00
55914;BME280;58179;48.776;9.124;2023-04-28T09:35:55;97033.31;;;12.93;100.00
55914;BME280;58179;48.776;9.124;2023-04-28T09:38:23;97033.53;;;13.02;100.00
55914;BME280;58179;48.776;9.124;2023-04-28T09:40:51;97027.34;;;13.22;100.00
55914;BME280;58179;48.776;9.124;2023-04-28T09:43:29;97032.50;;;13.42;100.00
55914;BME280;58179;48.776;9.124;2023-04-28T09:45:58;97029.94;;;13.66;100.00
55914;BME280;58179;48.776;9.124;2023-04-28T09:48:30;97036.78;;;13.72;100.00
55914;BME280;58179;48.776;9.124;2023-04-28T09:50:58;97028.94;;;13.85;100.00
55914;BME280;58179;48.776;9.124;2023-04-28T09:53:26;97034.41;;;13.99;100.00
55914;BME280;58179;48.776;9.124;2023-04-28T09:55:54;97028.44;;;14.12;100.00
55914;BME280;58179;48.776;9.124;2023-04-28T09:58:22;97018.63;;;14.31;100.00
55914;BME280;58179;48.776;9.124;2023-04-28T10:00:53;97025.75;;;14.41;100.00
55914;BME280;58179;48.776;9.124;2023-04-28T10:03:22;97023.88;;;14.65;100.00
55914;BME280;58179;48.776;9.124;2023-04-28T10:05:49;97032.34;;;14.67;100.00
55914;BME280;58179;48.776;9.124;2023-04-28T10:08:18;97026.38;;;14.76;100.00
55914;BME280;58179;48.776;9.124;2023-04-28T10:10:48;97028.09;;;14.66;100.00
55914;BME280;58179;48.776;9.124;2023-04-28T10:13:16;97031.41;;;14.58;100.00
55914;BME280;58179;48.776;9.124;2023-04-28T10:15:42;97029.41;;;14.69;100.00
55914;BME280;58179;48.776;9.124;2023-04-28T10:18:08;97030.19;;;14.69;100.00
55914;BME280;58179;48.776;9.124;2023-04-28T10:20:36;97033.09;;;14.73;100.00
55914;BME280;58179;48.776;9.124;2023-04-28T10:23:36;97025.91;;;14.92;100.00
55914;BME280;58179;48.776;9.124;2023-04-28T10:26:13;97020.66;;;14.87;100.00
55914;BME280;58179;48.776;9.124;2023-04-28T10:28:45;97020.22;;;14.99;100.00
55914;BME280;58179;48.776;9.124;2023-04-28T10:31:14;97011.72;;;15.16;100.00
55914;BME280;58179;48.776;9.124;2023-04-28T10:33:41;97020.66;;;15.25;100.00
55914;BME280;58179;48.776;9.124;2023-04-28T10:36:07;97012.72;;;15.20;100.00
55914;BME280;58179;48.776;9.124;2023-04-28T10:39:08;97010.03;;;15.20;100.00
55914;BME280;58179;48.776;9.124;2023-04-28T10:41:37;97015.59;;;15.23;100.00
55914;BME280;58179;48.776;9.124;2023-04-28T10:44:42;97021.31;;;15.17;100.00
55914;BME280;58179;48.776;9.124;2023-04-28T10:47:09;97023.38;;;15.20;100.00
55914;BME280;58179;48.776;9.124;2023-04-28T10:50:08;97018.91;;;15.15;100.00
55914;BME280;58179;48.776;9.124;2023-04-28T10:52:50;97024.31;;;15.29;100.00
55914;BME280;58179;48.776;9.124;2023-04-28T10:55:33;97019.22;;;15.32;100.00
55914;BME280;58179;48.776;9.124;2023-04-28T10:58:33;97025.38;;;15.46;100.00
55914;BME280;58179;48.776;9.124;2023-04-28T11:01:24;97029.22;;;15.59;100.00
55914;BME280;58179;48.776;9.124;2023-04-28T11:03:52;97032.75;;;15.55;100.00
55914;BME280;58179;48.776;9.124;2023-04-28T11:06:25;97016.78;;;15.68;100.00
55914;BME280;58179;48.776;9.124;2023-04-28T11:08:54;97020.81;;;15.98;100.00
55914;BME280;58179;48.776;9.124;2023-04-28T11:11:22;97020.94;;;16.20;100.00
55914;BME280;58179;48.776;9.124;2023-04-28T11:13:53;97024.63;;;16.38;100.00
55914;BME280;58179;48.776;9.124;2023-04-28T11:16:25;97024.78;;;16.55;100.00
55914;BME280;58179;48.776;9.124;2023-04-28T11:18:59;97015.59;;;16.34;100.00
55914;BME280;58179;48.776;9.124;2023-04-28T11:21:28;97017.25;;;16.16;100.00
55914;BME280;58179;48.776;9.124;2023-04-28T11:23:54;97017.19;;;16.08;100.00
55914;BME280;58179;48.776;9.124;2023-04-28T11:26:23;97013.22;;;16.05;100.00
55914;BME280;58179;48.776;9.124;2023-04-28T11:28:53;97012.03;;;16.11;100.00
55914;BME280;58179;48.776;9.124;2023-04-28T11:31:22;97018.78;;;16.22;100.00
55914;BME280;58179;48.776;9.124;2023-04-28T11:33:57;97019.06;;;16.35;100.00
55914;BME280;58179;48.776;9.124;2023-04-28T11:36:26;97015.03;;;16.37;100.00
55914;BME280;58179;48.776;9.124;2023-04-28T11:38:53;97016.78;;;16.42;100.00
55914;BME280;58179;48.776;9.124;2023-04-28T11:41:20;97017.38;;;16.52;100.00
55914;BME280;58179;48.776;9.124;2023-04-28T11:43:47;97013.72;;;16.48;100.00
55914;BME280;58179;48.776;9.124;2023-04-28T11:46:18;97005.13;;;16.65;100.00
55914;BME280;58179;48.776;9.124;2023-04-28T11:48:44;97005.72;;;16.76;100.00
55914;BME280;58179;48.776;9.124;2023-04-28T11:51:29;97004.00;;;16.80;100.00
55914;BME280;58179;48.776;9.124;2023-04-28T11:53:57;97001.72;;;16.87;100.00
55914;BME280;58179;48.776;9.124;2023-04-28T11:56:23;97004.59;;;16.90;100.00
55914;BME280;58179;48.776;9.124;2023-04-28T11:59:03;97006.38;;;16.95;100.00
55914;BME280;58179;48.776;9.124;2023-04-28T12:01:31;96995.47;;;17.27;100.00
55914;BME280;58179;48.776;9.124;2023-04-28T12:03:58;97009.63;;;16.92;100.00
55914;BME280;58179;48.776;9.124;2023-04-28T12:06:25;97010.28;;;16.75;100.00
55914;BME280;58179;48.776;9.124;2023-04-28T12:08:53;97004.53;;;16.68;100.00
55914;BME280;58179;48.776;9.124;2023-04-28T12:11:19;97003.50;;;16.78;100.00
55914;BME280;58179;48.776;9.124;2023-04-28T12:14:04;97003.72;;;16.81;100.00
55914;BME280;58179;48.776;9.124;2023-04-28T12:16:42;96999.34;;;16.85;100.00
55914;BME280;58179;48.776;9.124;2023-04-28T12:19:11;97003.47;;;17.05;100.00
55914;BME280;58179;48.776;9.124;2023-04-28T12:21:38;96992.81;;;16.91;100.00
55914;BME280;58179;48.776;9.124;2023-04-28T12:24:23;96995.31;;;17.10;100.00
55914;BME280;58179;48.776;9.124;2023-04-28T12:26:50;96998.84;;;16.97;100.00
55914;BME280;58179;48.776;9.124;2023-04-28T12:29:36;96994.38;;;17.28;100.00
55914;BME280;58179;48.776;9.124;2023-04-28T12:32:08;97007.69;;;17.20;100.00
55914;BME280;58179;48.776;9.124;2023-04-28T12:34:36;97010.69;;;17.05;100.00
55914;BME280;58179;48.776;9.124;2023-04-28T12:37:05;97014.38;;;16.95;100.00
55914;BME280;58179;48.776;9.124;2023-04-28T12:39:32;97006.41;;;16.81;100.00
55914;BME280;58179;48.776;9.124;2023-04-28T12:41:58;97003.34;;;16.74;100.00
55914;BME280;58179;48.776;9.124;2023-04-28T12:44:25;97014.84;;;16.61;100.00
55914;BME280;58179;48.776;9.124;2023-04-28T12:46:53;97007.31;;;16.63;100.00
55914;BME280;58179;48.776;9.124;2023-04-28T12:49:22;97005.59;;;16.40;100.00
55914;BME280;58179;48.776;9.124;2023-04-28T12:51:48;97008.38;;;16.35;100.00
55914;BME280;58179;48.776;9.124;2023-04-28T12:54:14;97005.13;;;16.51;100.00